KGLD/GLD METAR and TAF weather

Enter ICAO airport designator
Station Type Date Time Source
KGLD METAR 2022/06/27 08:53 UTC NOAA

KGLD 270853Z AUTO 17007KT 10SM FEW110 12/05 A3038 RMK AO2 SLP261 T01170050 58015


Station Type Date Time Source
KGLD Decoded METAR 2022/06/27 08:53 UTC NOAA

GOODLAND RENNER FIELD, KS, United States (KGLD) 39-22N 101-42W 1114M
Jun 27, 2022 - 04:53 AM EDT / 2022.06.27 0853 UTC
Wind: from the S (170 degrees) at 8 MPH (7 KT):0
Visibility: 10 mile(s):0
Sky conditions: mostly clear
Temperature: 53.1 F (11.7 C)
Dew Point: 41.0 F (5.0 C)
Relative Humidity: 63%
Pressure (altimeter): 30.38 in. Hg (1028 hPa)
Pressure tendency: 0.04 inches (1.5 hPa) lower than three hours ago
ob: KGLD 270853Z AUTO 17007KT 10SM FEW110 12/05 A3038 RMK AO2 SLP261 T01170050 58015
cycle: 9

Station Type Date Time Source
KGLD TAF 2022/06/27 06:22 UTC NOAA

TAF KGLD 270520Z 2706/2806 15007KT P6SM SKC
FM270800 19014KT P6SM BKN200
FM271400 19018G26KT P6SM BKN200
FM280100 18014KT P6SM FEW250

Example: see airport list